sensor_id;sensor_type;location;lat;lon;timestamp;P1;durP1;ratioP1;P2;durP2;ratioP2
4051;SDS011;2040;50.924;11.604;2022-08-24T00:00:12;5.60;;;4.80;;
4051;SDS011;2040;50.924;11.604;2022-08-24T00:02:42;9.70;;;4.90;;
4051;SDS011;2040;50.924;11.604;2022-08-24T00:05:08;8.33;;;5.10;;
4051;SDS011;2040;50.924;11.604;2022-08-24T00:07:34;6.30;;;4.50;;
4051;SDS011;2040;50.924;11.604;2022-08-24T00:10:00;6.43;;;4.87;;
4051;SDS011;2040;50.924;11.604;2022-08-24T00:12:26;7.87;;;5.40;;
4051;SDS011;2040;50.924;11.604;2022-08-24T00:14:52;8.53;;;4.20;;
4051;SDS011;2040;50.924;11.604;2022-08-24T00:17:18;6.53;;;4.60;;
4051;SDS011;2040;50.924;11.604;2022-08-24T00:19:45;6.90;;;5.17;;
4051;SDS011;2040;50.924;11.604;2022-08-24T00:22:11;6.87;;;4.77;;
4051;SDS011;2040;50.924;11.604;2022-08-24T00:24:37;6.03;;;5.00;;
4051;SDS011;2040;50.924;11.604;2022-08-24T00:27:04;6.67;;;4.57;;
4051;SDS011;2040;50.924;11.604;2022-08-24T00:29:31;7.77;;;4.63;;
4051;SDS011;2040;50.924;11.604;2022-08-24T00:31:57;7.90;;;5.03;;
4051;SDS011;2040;50.924;11.604;2022-08-24T00:34:23;15.13;;;5.87;;
4051;SDS011;2040;50.924;11.604;2022-08-24T00:36:50;8.13;;;4.87;;
4051;SDS011;2040;50.924;11.604;2022-08-24T00:39:16;6.60;;;4.40;;
4051;SDS011;2040;50.924;11.604;2022-08-24T00:41:43;7.10;;;4.50;;
4051;SDS011;2040;50.924;11.604;2022-08-24T00:44:10;8.10;;;4.97;;
4051;SDS011;2040;50.924;11.604;2022-08-24T00:49:28;9.63;;;5.50;;
4051;SDS011;2040;50.924;11.604;2022-08-24T00:52:15;7.20;;;5.40;;
4051;SDS011;2040;50.924;11.604;2022-08-24T00:54:47;10.70;;;5.67;;
4051;SDS011;2040;50.924;11.604;2022-08-24T00:57:27;11.93;;;5.90;;
4051;SDS011;2040;50.924;11.604;2022-08-24T01:00:00;9.50;;;5.00;;
4051;SDS011;2040;50.924;11.604;2022-08-24T01:02:31;7.00;;;4.63;;
4051;SDS011;2040;50.924;11.604;2022-08-24T01:05:00;7.37;;;4.77;;
4051;SDS011;2040;50.924;11.604;2022-08-24T01:07:29;7.63;;;5.13;;
4051;SDS011;2040;50.924;11.604;2022-08-24T01:09:57;7.97;;;5.20;;
4051;SDS011;2040;50.924;11.604;2022-08-24T01:12:26;8.23;;;4.70;;
4051;SDS011;2040;50.924;11.604;2022-08-24T01:14:53;9.23;;;4.40;;
4051;SDS011;2040;50.924;11.604;2022-08-24T01:17:21;6.67;;;4.83;;
4051;SDS011;2040;50.924;11.604;2022-08-24T01:20:07;11.10;;;5.20;;
4051;SDS011;2040;50.924;11.604;2022-08-24T01:25:29;7.93;;;4.80;;
4051;SDS011;2040;50.924;11.604;2022-08-24T01:27:58;6.93;;;5.67;;
4051;SDS011;2040;50.924;11.604;2022-08-24T01:30:28;10.33;;;5.60;;
4051;SDS011;2040;50.924;11.604;2022-08-24T01:32:56;11.90;;;6.77;;
4051;SDS011;2040;50.924;11.604;2022-08-24T01:35:23;7.30;;;5.83;;
4051;SDS011;2040;50.924;11.604;2022-08-24T01:37:49;9.43;;;5.70;;
4051;SDS011;2040;50.924;11.604;2022-08-24T01:40:17;7.90;;;6.07;;
4051;SDS011;2040;50.924;11.604;2022-08-24T01:42:48;9.10;;;6.00;;
4051;SDS011;2040;50.924;11.604;2022-08-24T01:45:15;11.80;;;6.03;;
4051;SDS011;2040;50.924;11.604;2022-08-24T01:47:41;7.80;;;5.50;;
4051;SDS011;2040;50.924;11.604;2022-08-24T01:50:07;9.23;;;5.40;;
4051;SDS011;2040;50.924;11.604;2022-08-24T01:52:32;10.23;;;6.07;;
4051;SDS011;2040;50.924;11.604;2022-08-24T01:54:58;5.83;;;5.20;;
4051;SDS011;2040;50.924;11.604;2022-08-24T01:57:24;6.30;;;5.03;;
4051;SDS011;2040;50.924;11.604;2022-08-24T01:59:51;7.63;;;5.43;;
4051;SDS011;2040;50.924;11.604;2022-08-24T02:02:22;5.87;;;4.80;;
4051;SDS011;2040;50.924;11.604;2022-08-24T02:04:51;7.53;;;5.83;;
4051;SDS011;2040;50.924;11.604;2022-08-24T02:07:17;10.60;;;6.47;;
4051;SDS011;2040;50.924;11.604;2022-08-24T02:09:43;13.27;;;5.77;;
4051;SDS011;2040;50.924;11.604;2022-08-24T02:12:09;10.33;;;6.70;;
4051;SDS011;2040;50.924;11.604;2022-08-24T02:14:35;8.90;;;5.60;;
4051;SDS011;2040;50.924;11.604;2022-08-24T02:17:01;10.53;;;5.43;;
4051;SDS011;2040;50.924;11.604;2022-08-24T02:19:29;7.57;;;4.63;;
4051;SDS011;2040;50.924;11.604;2022-08-24T02:21:54;6.97;;;5.00;;
4051;SDS011;2040;50.924;11.604;2022-08-24T02:24:20;6.17;;;4.70;;
4051;SDS011;2040;50.924;11.604;2022-08-24T02:26:45;11.63;;;6.10;;
4051;SDS011;2040;50.924;11.604;2022-08-24T02:29:11;11.90;;;5.27;;
4051;SDS011;2040;50.924;11.604;2022-08-24T02:31:37;7.90;;;5.47;;
4051;SDS011;2040;50.924;11.604;2022-08-24T02:34:02;7.40;;;5.57;;
4051;SDS011;2040;50.924;11.604;2022-08-24T02:36:28;8.40;;;6.07;;
4051;SDS011;2040;50.924;11.604;2022-08-24T02:38:55;8.00;;;5.70;;
4051;SDS011;2040;50.924;11.604;2022-08-24T02:41:22;7.90;;;5.60;;
4051;SDS011;2040;50.924;11.604;2022-08-24T02:43:49;6.43;;;5.20;;
4051;SDS011;2040;50.924;11.604;2022-08-24T02:46:19;9.17;;;6.23;;
4051;SDS011;2040;50.924;11.604;2022-08-24T02:48:46;6.10;;;5.13;;
4051;SDS011;2040;50.924;11.604;2022-08-24T02:51:22;11.53;;;5.13;;
4051;SDS011;2040;50.924;11.604;2022-08-24T02:53:56;8.70;;;5.97;;
4051;SDS011;2040;50.924;11.604;2022-08-24T02:56:23;7.07;;;6.10;;
4051;SDS011;2040;50.924;11.604;2022-08-24T02:58:49;9.50;;;5.60;;
4051;SDS011;2040;50.924;11.604;2022-08-24T03:01:15;9.27;;;6.40;;
4051;SDS011;2040;50.924;11.604;2022-08-24T03:03:41;11.40;;;5.83;;
4051;SDS011;2040;50.924;11.604;2022-08-24T03:06:07;12.93;;;6.10;;
4051;SDS011;2040;50.924;11.604;2022-08-24T03:08:34;9.57;;;5.30;;
4051;SDS011;2040;50.924;11.604;2022-08-24T03:11:00;7.40;;;5.50;;
4051;SDS011;2040;50.924;11.604;2022-08-24T03:13:27;6.90;;;5.77;;
4051;SDS011;2040;50.924;11.604;2022-08-24T03:15:54;6.47;;;4.93;;
4051;SDS011;2040;50.924;11.604;2022-08-24T03:18:21;9.33;;;5.70;;
4051;SDS011;2040;50.924;11.604;2022-08-24T03:20:49;6.57;;;5.47;;
4051;SDS011;2040;50.924;11.604;2022-08-24T03:23:15;7.37;;;5.27;;
4051;SDS011;2040;50.924;11.604;2022-08-24T03:25:41;9.00;;;6.20;;
4051;SDS011;2040;50.924;11.604;2022-08-24T03:28:07;7.83;;;6.10;;
4051;SDS011;2040;50.924;11.604;2022-08-24T03:30:33;6.50;;;4.90;;
4051;SDS011;2040;50.924;11.604;2022-08-24T03:32:58;10.20;;;6.23;;
4051;SDS011;2040;50.924;11.604;2022-08-24T03:35:24;8.57;;;6.03;;
4051;SDS011;2040;50.924;11.604;2022-08-24T03:37:50;18.30;;;6.53;;
4051;SDS011;2040;50.924;11.604;2022-08-24T03:40:16;9.63;;;5.80;;
4051;SDS011;2040;50.924;11.604;2022-08-24T03:42:44;10.20;;;4.93;;
4051;SDS011;2040;50.924;11.604;2022-08-24T03:45:09;7.27;;;5.87;;
4051;SDS011;2040;50.924;11.604;2022-08-24T03:47:35;7.30;;;6.07;;
4051;SDS011;2040;50.924;11.604;2022-08-24T03:50:01;8.50;;;5.80;;
4051;SDS011;2040;50.924;11.604;2022-08-24T03:52:28;7.93;;;5.60;;
4051;SDS011;2040;50.924;11.604;2022-08-24T03:54:54;9.10;;;6.10;;
4051;SDS011;2040;50.924;11.604;2022-08-24T03:57:19;8.30;;;5.73;;
4051;SDS011;2040;50.924;11.604;2022-08-24T03:59:45;15.47;;;6.37;;
4051;SDS011;2040;50.924;11.604;2022-08-24T04:02:10;7.23;;;5.60;;
4051;SDS011;2040;50.924;11.604;2022-08-24T04:04:36;6.63;;;5.17;;
4051;SDS011;2040;50.924;11.604;2022-08-24T04:07:01;8.33;;;5.87;;
4051;SDS011;2040;50.924;11.604;2022-08-24T04:09:28;8.13;;;5.90;;
4051;SDS011;2040;50.924;11.604;2022-08-24T04:11:53;9.27;;;6.73;;
4051;SDS011;2040;50.924;11.604;2022-08-24T04:14:19;9.53;;;6.50;;
4051;SDS011;2040;50.924;11.604;2022-08-24T04:16:45;6.30;;;5.70;;
4051;SDS011;2040;50.924;11.604;2022-08-24T04:19:11;10.67;;;5.80;;
4051;SDS011;2040;50.924;11.604;2022-08-24T04:21:38;9.10;;;6.50;;
4051;SDS011;2040;50.924;11.604;2022-08-24T04:24:04;10.73;;;6.70;;
4051;SDS011;2040;50.924;11.604;2022-08-24T04:26:31;9.37;;;6.70;;
4051;SDS011;2040;50.924;11.604;2022-08-24T04:28:57;11.17;;;7.07;;
4051;SDS011;2040;50.924;11.604;2022-08-24T04:31:23;8.80;;;6.73;;
4051;SDS011;2040;50.924;11.604;2022-08-24T04:33:50;28.63;;;7.10;;
4051;SDS011;2040;50.924;11.604;2022-08-24T04:36:17;9.37;;;5.60;;
4051;SDS011;2040;50.924;11.604;2022-08-24T04:38:45;7.00;;;5.97;;
4051;SDS011;2040;50.924;11.604;2022-08-24T04:41:11;7.83;;;6.10;;
4051;SDS011;2040;50.924;11.604;2022-08-24T04:43:41;11.97;;;5.60;;
4051;SDS011;2040;50.924;11.604;2022-08-24T04:46:09;7.00;;;5.77;;
4051;SDS011;2040;50.924;11.604;2022-08-24T04:48:39;8.73;;;5.47;;
4051;SDS011;2040;50.924;11.604;2022-08-24T04:51:06;6.60;;;4.87;;
4051;SDS011;2040;50.924;11.604;2022-08-24T04:53:34;5.73;;;5.07;;
4051;SDS011;2040;50.924;11.604;2022-08-24T04:56:00;7.60;;;5.57;;
4051;SDS011;2040;50.924;11.604;2022-08-24T04:58:26;15.73;;;5.70;;
4051;SDS011;2040;50.924;11.604;2022-08-24T05:00:53;7.70;;;6.07;;
4051;SDS011;2040;50.924;11.604;2022-08-24T05:03:20;7.60;;;5.77;;
4051;SDS011;2040;50.924;11.604;2022-08-24T05:05:47;8.43;;;5.83;;
4051;SDS011;2040;50.924;11.604;2022-08-24T05:08:15;12.13;;;7.13;;
4051;SDS011;2040;50.924;11.604;2022-08-24T05:10:43;10.90;;;6.03;;
4051;SDS011;2040;50.924;11.604;2022-08-24T05:13:10;16.57;;;7.97;;
4051;SDS011;2040;50.924;11.604;2022-08-24T05:15:39;10.00;;;6.83;;
4051;SDS011;2040;50.924;11.604;2022-08-24T05:18:07;10.33;;;5.87;;
4051;SDS011;2040;50.924;11.604;2022-08-24T05:20:33;10.50;;;6.10;;
4051;SDS011;2040;50.924;11.604;2022-08-24T05:23:00;9.83;;;6.70;;
4051;SDS011;2040;50.924;11.604;2022-08-24T05:25:25;9.30;;;6.67;;
4051;SDS011;2040;50.924;11.604;2022-08-24T05:27:52;9.17;;;7.27;;
4051;SDS011;2040;50.924;11.604;2022-08-24T05:30:17;8.90;;;6.83;;
4051;SDS011;2040;50.924;11.604;2022-08-24T05:32:43;9.70;;;6.90;;
4051;SDS011;2040;50.924;11.604;2022-08-24T05:35:09;13.73;;;6.80;;
4051;SDS011;2040;50.924;11.604;2022-08-24T05:37:35;11.63;;;6.50;;
4051;SDS011;2040;50.924;11.604;2022-08-24T05:40:03;6.90;;;5.83;;
4051;SDS011;2040;50.924;11.604;2022-08-24T05:42:32;13.63;;;6.23;;
4051;SDS011;2040;50.924;11.604;2022-08-24T05:44:57;7.77;;;6.60;;
4051;SDS011;2040;50.924;11.604;2022-08-24T05:47:23;8.33;;;6.40;;
4051;SDS011;2040;50.924;11.604;2022-08-24T05:49:49;14.37;;;6.80;;
4051;SDS011;2040;50.924;11.604;2022-08-24T05:52:17;8.03;;;6.30;;
4051;SDS011;2040;50.924;11.604;2022-08-24T05:54:42;13.43;;;7.00;;
4051;SDS011;2040;50.924;11.604;2022-08-24T05:57:09;18.20;;;6.83;;
4051;SDS011;2040;50.924;11.604;2022-08-24T05:59:36;8.97;;;6.90;;
4051;SDS011;2040;50.924;11.604;2022-08-24T06:02:02;9.43;;;6.53;;
4051;SDS011;2040;50.924;11.604;2022-08-24T06:04:28;9.03;;;6.90;;
4051;SDS011;2040;50.924;11.604;2022-08-24T06:06:53;10.77;;;7.67;;
4051;SDS011;2040;50.924;11.604;2022-08-24T06:09:20;9.20;;;7.40;;
4051;SDS011;2040;50.924;11.604;2022-08-24T06:11:46;8.93;;;6.70;;
4051;SDS011;2040;50.924;11.604;2022-08-24T06:14:16;12.47;;;8.50;;
4051;SDS011;2040;50.924;11.604;2022-08-24T06:16:47;12.20;;;7.07;;
4051;SDS011;2040;50.924;11.604;2022-08-24T06:19:16;19.37;;;7.87;;
4051;SDS011;2040;50.924;11.604;2022-08-24T06:21:43;15.50;;;7.70;;
4051;SDS011;2040;50.924;11.604;2022-08-24T06:24:12;8.83;;;7.10;;
4051;SDS011;2040;50.924;11.604;2022-08-24T06:26:40;9.30;;;7.60;;
4051;SDS011;2040;50.924;11.604;2022-08-24T06:29:24;12.07;;;6.73;;
4051;SDS011;2040;50.924;11.604;2022-08-24T06:31:50;10.30;;;8.03;;
4051;SDS011;2040;50.924;11.604;2022-08-24T06:34:17;10.20;;;7.70;;
4051;SDS011;2040;50.924;11.604;2022-08-24T06:36:43;9.80;;;7.33;;
4051;SDS011;2040;50.924;11.604;2022-08-24T06:39:08;12.80;;;7.30;;
4051;SDS011;2040;50.924;11.604;2022-08-24T06:41:34;16.87;;;9.00;;
4051;SDS011;2040;50.924;11.604;2022-08-24T06:44:01;31.40;;;9.33;;
4051;SDS011;2040;50.924;11.604;2022-08-24T06:46:27;20.03;;;7.60;;
4051;SDS011;2040;50.924;11.604;2022-08-24T06:48:53;18.20;;;7.70;;
4051;SDS011;2040;50.924;11.604;2022-08-24T06:51:19;14.20;;;8.37;;
4051;SDS011;2040;50.924;11.604;2022-08-24T06:53:46;12.60;;;8.47;;
4051;SDS011;2040;50.924;11.604;2022-08-24T06:56:13;9.20;;;7.70;;
4051;SDS011;2040;50.924;11.604;2022-08-24T06:58:38;12.20;;;7.50;;
4051;SDS011;2040;50.924;11.604;2022-08-24T07:01:11;11.53;;;7.23;;
4051;SDS011;2040;50.924;11.604;2022-08-24T07:03:40;10.37;;;7.40;;
4051;SDS011;2040;50.924;11.604;2022-08-24T07:06:06;8.97;;;7.43;;
4051;SDS011;2040;50.924;11.604;2022-08-24T07:08:33;20.10;;;7.87;;
4051;SDS011;2040;50.924;11.604;2022-08-24T07:10:58;18.43;;;8.13;;
4051;SDS011;2040;50.924;11.604;2022-08-24T07:13:24;11.70;;;7.47;;
4051;SDS011;2040;50.924;11.604;2022-08-24T07:15:50;11.37;;;6.80;;
4051;SDS011;2040;50.924;11.604;2022-08-24T07:18:17;14.33;;;7.30;;
4051;SDS011;2040;50.924;11.604;2022-08-24T07:20:43;10.93;;;6.83;;
4051;SDS011;2040;50.924;11.604;2022-08-24T07:23:10;9.93;;;7.10;;
4051;SDS011;2040;50.924;11.604;2022-08-24T07:25:39;12.40;;;6.20;;
4051;SDS011;2040;50.924;11.604;2022-08-24T07:28:06;11.47;;;6.50;;
4051;SDS011;2040;50.924;11.604;2022-08-24T07:30:33;15.77;;;7.00;;
4051;SDS011;2040;50.924;11.604;2022-08-24T07:32:59;11.53;;;6.97;;
4051;SDS011;2040;50.924;11.604;2022-08-24T07:35:25;9.13;;;7.17;;
4051;SDS011;2040;50.924;11.604;2022-08-24T07:37:52;25.73;;;7.60;;
4051;SDS011;2040;50.924;11.604;2022-08-24T07:40:19;11.47;;;6.80;;
4051;SDS011;2040;50.924;11.604;2022-08-24T07:42:46;15.07;;;7.10;;
4051;SDS011;2040;50.924;11.604;2022-08-24T07:45:13;13.73;;;5.90;;
4051;SDS011;2040;50.924;11.604;2022-08-24T07:47:38;11.53;;;5.60;;
4051;SDS011;2040;50.924;11.604;2022-08-24T07:50:04;11.00;;;6.30;;
4051;SDS011;2040;50.924;11.604;2022-08-24T07:52:30;19.53;;;6.97;;
4051;SDS011;2040;50.924;11.604;2022-08-24T07:54:58;8.33;;;6.20;;
4051;SDS011;2040;50.924;11.604;2022-08-24T07:57:25;13.03;;;6.57;;
4051;SDS011;2040;50.924;11.604;2022-08-24T07:59:51;6.90;;;5.80;;
4051;SDS011;2040;50.924;11.604;2022-08-24T08:02:16;8.60;;;5.63;;
4051;SDS011;2040;50.924;11.604;2022-08-24T08:04:42;7.33;;;5.50;;
4051;SDS011;2040;50.924;11.604;2022-08-24T08:07:08;13.37;;;6.50;;
4051;SDS011;2040;50.924;11.604;2022-08-24T08:09:37;9.03;;;5.30;;
4051;SDS011;2040;50.924;11.604;2022-08-24T08:12:03;9.00;;;5.93;;
4051;SDS011;2040;50.924;11.604;2022-08-24T08:14:30;8.57;;;5.80;;
4051;SDS011;2040;50.924;11.604;2022-08-24T08:16:56;11.07;;;5.40;;
4051;SDS011;2040;50.924;11.604;2022-08-24T08:19:21;37.37;;;7.13;;
4051;SDS011;2040;50.924;11.604;2022-08-24T08:21:48;7.73;;;5.97;;
4051;SDS011;2040;50.924;11.604;2022-08-24T08:24:36;11.67;;;5.67;;
4051;SDS011;2040;50.924;11.604;2022-08-24T08:27:03;13.80;;;7.13;;
4051;SDS011;2040;50.924;11.604;2022-08-24T08:29:30;11.10;;;7.23;;
4051;SDS011;2040;50.924;11.604;2022-08-24T08:31:58;10.43;;;6.07;;
4051;SDS011;2040;50.924;11.604;2022-08-24T08:34:25;9.90;;;5.40;;
4051;SDS011;2040;50.924;11.604;2022-08-24T08:36:52;14.50;;;6.00;;
4051;SDS011;2040;50.924;11.604;2022-08-24T08:39:19;13.80;;;6.40;;
4051;SDS011;2040;50.924;11.604;2022-08-24T08:47:34;11.40;;;6.67;;
4051;SDS011;2040;50.924;11.604;2022-08-24T08:50:30;9.20;;;5.63;;
4051;SDS011;2040;50.924;11.604;2022-08-24T08:56:08;11.70;;;5.50;;
4051;SDS011;2040;50.924;11.604;2022-08-24T08:59:00;8.77;;;5.57;;
4051;SDS011;2040;50.924;11.604;2022-08-24T09:01:35;7.97;;;5.03;;
4051;SDS011;2040;50.924;11.604;2022-08-24T09:07:26;10.03;;;4.87;;
4051;SDS011;2040;50.924;11.604;2022-08-24T09:18:54;6.60;;;5.33;;
4051;SDS011;2040;50.924;11.604;2022-08-24T09:24:24;10.83;;;4.57;;
4051;SDS011;2040;50.924;11.604;2022-08-24T09:32:32;8.40;;;5.00;;
4051;SDS011;2040;50.924;11.604;2022-08-24T09:35:03;5.23;;;4.60;;
4051;SDS011;2040;50.924;11.604;2022-08-24T09:37:56;14.13;;;5.73;;
4051;SDS011;2040;50.924;11.604;2022-08-24T09:46:10;12.50;;;5.27;;
4051;SDS011;2040;50.924;11.604;2022-08-24T09:51:41;6.90;;;3.77;;
4051;SDS011;2040;50.924;11.604;2022-08-24T09:57:43;8.70;;;3.63;;
4051;SDS011;2040;50.924;11.604;2022-08-24T10:00:26;14.60;;;6.13;;
4051;SDS011;2040;50.924;11.604;2022-08-24T10:05:58;6.40;;;3.37;;
4051;SDS011;2040;50.924;11.604;2022-08-24T10:16:42;10.33;;;3.97;;
4051;SDS011;2040;50.924;11.604;2022-08-24T10:25:09;4.30;;;3.30;;
4051;SDS011;2040;50.924;11.604;2022-08-24T10:28:16;6.63;;;3.57;;
4051;SDS011;2040;50.924;11.604;2022-08-24T10:31:03;7.37;;;3.77;;
4051;SDS011;2040;50.924;11.604;2022-08-24T10:33:37;6.40;;;3.07;;
4051;SDS011;2040;50.924;11.604;2022-08-24T10:36:30;8.03;;;3.30;;
4051;SDS011;2040;50.924;11.604;2022-08-24T10:45:30;5.03;;;3.00;;
4051;SDS011;2040;50.924;11.604;2022-08-24T10:53:58;5.57;;;3.07;;
4051;SDS011;2040;50.924;11.604;2022-08-24T10:56:41;3.53;;;2.80;;
4051;SDS011;2040;50.924;11.604;2022-08-24T11:02:42;5.27;;;2.37;;
4051;SDS011;2040;50.924;11.604;2022-08-24T11:05:12;3.30;;;2.57;;
4051;SDS011;2040;50.924;11.604;2022-08-24T11:07:58;4.50;;;2.67;;
4051;SDS011;2040;50.924;11.604;2022-08-24T11:10:30;3.17;;;2.60;;
4051;SDS011;2040;50.924;11.604;2022-08-24T11:15:49;4.33;;;2.53;;
4051;SDS011;2040;50.924;11.604;2022-08-24T11:18:24;8.53;;;2.67;;
4051;SDS011;2040;50.924;11.604;2022-08-24T11:20:51;6.53;;;2.60;;
4051;SDS011;2040;50.924;11.604;2022-08-24T11:23:19;6.00;;;2.70;;
4051;SDS011;2040;50.924;11.604;2022-08-24T11:28:43;6.03;;;3.03;;
4051;SDS011;2040;50.924;11.604;2022-08-24T11:31:12;6.83;;;2.80;;
4051;SDS011;2040;50.924;11.604;2022-08-24T11:33:45;9.03;;;2.67;;
4051;SDS011;2040;50.924;11.604;2022-08-24T11:36:14;7.43;;;3.13;;
4051;SDS011;2040;50.924;11.604;2022-08-24T11:38:44;5.53;;;2.50;;
4051;SDS011;2040;50.924;11.604;2022-08-24T11:41:15;5.33;;;3.30;;
4051;SDS011;2040;50.924;11.604;2022-08-24T11:44:19;5.80;;;2.70;;
4051;SDS011;2040;50.924;11.604;2022-08-24T11:50:18;7.00;;;2.43;;
4051;SDS011;2040;50.924;11.604;2022-08-24T11:55:38;4.20;;;2.90;;
4051;SDS011;2040;50.924;11.604;2022-08-24T11:58:18;5.53;;;2.60;;
4051;SDS011;2040;50.924;11.604;2022-08-24T12:01:20;4.30;;;2.50;;
4051;SDS011;2040;50.924;11.604;2022-08-24T12:04:03;2.73;;;2.53;;
4051;SDS011;2040;50.924;11.604;2022-08-24T12:06:45;2.93;;;2.17;;
4051;SDS011;2040;50.924;11.604;2022-08-24T12:15:12;7.40;;;2.77;;
4051;SDS011;2040;50.924;11.604;2022-08-24T12:18:02;7.77;;;3.23;;
4051;SDS011;2040;50.924;11.604;2022-08-24T12:20:42;3.93;;;2.77;;
4051;SDS011;2040;50.924;11.604;2022-08-24T12:23:23;8.83;;;2.70;;
4051;SDS011;2040;50.924;11.604;2022-08-24T12:25:56;4.03;;;2.40;;
4051;SDS011;2040;50.924;11.604;2022-08-24T12:28:48;9.03;;;3.70;;
4051;SDS011;2040;50.924;11.604;2022-08-24T12:31:22;3.90;;;2.50;;
4051;SDS011;2040;50.924;11.604;2022-08-24T12:34:03;4.70;;;2.67;;
4051;SDS011;2040;50.924;11.604;2022-08-24T12:36:49;3.63;;;2.60;;
4051;SDS011;2040;50.924;11.604;2022-08-24T12:39:38;9.67;;;2.87;;
4051;SDS011;2040;50.924;11.604;2022-08-24T12:47:09;5.33;;;2.90;;
4051;SDS011;2040;50.924;11.604;2022-08-24T12:49:44;5.20;;;2.23;;
4051;SDS011;2040;50.924;11.604;2022-08-24T12:52:24;4.60;;;2.60;;
4051;SDS011;2040;50.924;11.604;2022-08-24T12:58:20;6.70;;;3.17;;
4051;SDS011;2040;50.924;11.604;2022-08-24T13:01:07;6.27;;;2.57;;
4051;SDS011;2040;50.924;11.604;2022-08-24T13:03:37;3.10;;;2.60;;
4051;SDS011;2040;50.924;11.604;2022-08-24T13:06:08;3.00;;;2.53;;
4051;SDS011;2040;50.924;11.604;2022-08-24T13:08:42;7.03;;;2.50;;
4051;SDS011;2040;50.924;11.604;2022-08-24T13:11:11;6.77;;;2.50;;
4051;SDS011;2040;50.924;11.604;2022-08-24T13:21:59;12.50;;;2.70;;
4051;SDS011;2040;50.924;11.604;2022-08-24T13:24:46;4.63;;;2.67;;
4051;SDS011;2040;50.924;11.604;2022-08-24T13:29:49;5.10;;;2.70;;
4051;SDS011;2040;50.924;11.604;2022-08-24T13:32:26;5.10;;;2.63;;
4051;SDS011;2040;50.924;11.604;2022-08-24T13:38:26;4.00;;;2.20;;
4051;SDS011;2040;50.924;11.604;2022-08-24T13:43:43;9.10;;;2.50;;
4051;SDS011;2040;50.924;11.604;2022-08-24T13:51:55;6.43;;;2.57;;
4051;SDS011;2040;50.924;11.604;2022-08-24T14:00:00;3.27;;;2.70;;
4051;SDS011;2040;50.924;11.604;2022-08-24T14:05:32;2.80;;;2.30;;
4051;SDS011;2040;50.924;11.604;2022-08-24T14:10:41;2.83;;;2.30;;
4051;SDS011;2040;50.924;11.604;2022-08-24T14:13:26;4.10;;;2.30;;
4051;SDS011;2040;50.924;11.604;2022-08-24T14:16:08;4.20;;;2.33;;
4051;SDS011;2040;50.924;11.604;2022-08-24T14:19:19;3.97;;;2.30;;
4051;SDS011;2040;50.924;11.604;2022-08-24T14:25:02;8.77;;;2.80;;
4051;SDS011;2040;50.924;11.604;2022-08-24T14:27:45;3.37;;;2.60;;
4051;SDS011;2040;50.924;11.604;2022-08-24T14:32:47;6.27;;;2.53;;
4051;SDS011;2040;50.924;11.604;2022-08-24T14:41:19;4.07;;;2.60;;
4051;SDS011;2040;50.924;11.604;2022-08-24T14:47:24;4.57;;;2.50;;
4051;SDS011;2040;50.924;11.604;2022-08-24T14:50:13;6.70;;;2.70;;
4051;SDS011;2040;50.924;11.604;2022-08-24T14:52:59;3.47;;;2.97;;
4051;SDS011;2040;50.924;11.604;2022-08-24T14:58:50;3.03;;;2.57;;
4051;SDS011;2040;50.924;11.604;2022-08-24T15:01:41;5.40;;;2.40;;
4051;SDS011;2040;50.924;11.604;2022-08-24T15:04:23;5.73;;;2.63;;
4051;SDS011;2040;50.924;11.604;2022-08-24T15:09:53;4.87;;;2.27;;
4051;SDS011;2040;50.924;11.604;2022-08-24T15:15:11;9.70;;;2.70;;
4051;SDS011;2040;50.924;11.604;2022-08-24T15:17:51;4.63;;;2.50;;
4051;SDS011;2040;50.924;11.604;2022-08-24T15:23:03;3.60;;;2.53;;
4051;SDS011;2040;50.924;11.604;2022-08-24T15:25:38;7.13;;;2.80;;
4051;SDS011;2040;50.924;11.604;2022-08-24T15:28:13;3.60;;;2.97;;
4051;SDS011;2040;50.924;11.604;2022-08-24T15:31:07;5.97;;;2.37;;
4051;SDS011;2040;50.924;11.604;2022-08-24T15:33:49;3.07;;;2.37;;
4051;SDS011;2040;50.924;11.604;2022-08-24T15:36:16;4.67;;;2.40;;
4051;SDS011;2040;50.924;11.604;2022-08-24T15:38:43;5.03;;;2.67;;
4051;SDS011;2040;50.924;11.604;2022-08-24T15:41:23;7.20;;;2.70;;
4051;SDS011;2040;50.924;11.604;2022-08-24T15:43:57;3.90;;;2.07;;
4051;SDS011;2040;50.924;11.604;2022-08-24T15:46:25;4.73;;;2.80;;
4051;SDS011;2040;50.924;11.604;2022-08-24T15:49:12;4.47;;;2.40;;
4051;SDS011;2040;50.924;11.604;2022-08-24T15:56:48;3.73;;;2.30;;
4051;SDS011;2040;50.924;11.604;2022-08-24T15:59:51;2.83;;;2.37;;
4051;SDS011;2040;50.924;11.604;2022-08-24T16:05:38;3.80;;;2.30;;
4051;SDS011;2040;50.924;11.604;2022-08-24T16:15:43;2.33;;;1.97;;
4051;SDS011;2040;50.924;11.604;2022-08-24T16:18:16;5.63;;;2.93;;
4051;SDS011;2040;50.924;11.604;2022-08-24T16:20:44;3.17;;;2.27;;
4051;SDS011;2040;50.924;11.604;2022-08-24T16:23:32;3.50;;;2.50;;
4051;SDS011;2040;50.924;11.604;2022-08-24T16:26:25;3.43;;;2.60;;
4051;SDS011;2040;50.924;11.604;2022-08-24T16:28:56;2.50;;;2.10;;
4051;SDS011;2040;50.924;11.604;2022-08-24T16:31:43;3.57;;;2.20;;
4051;SDS011;2040;50.924;11.604;2022-08-24T16:34:19;4.87;;;2.70;;
4051;SDS011;2040;50.924;11.604;2022-08-24T16:36:47;4.70;;;2.40;;
4051;SDS011;2040;50.924;11.604;2022-08-24T16:39:13;4.60;;;2.17;;
4051;SDS011;2040;50.924;11.604;2022-08-24T16:41:39;3.40;;;2.20;;
4051;SDS011;2040;50.924;11.604;2022-08-24T16:44:06;3.93;;;2.70;;
4051;SDS011;2040;50.924;11.604;2022-08-24T16:46:39;2.90;;;2.23;;
4051;SDS011;2040;50.924;11.604;2022-08-24T16:49:06;4.10;;;2.20;;
4051;SDS011;2040;50.924;11.604;2022-08-24T16:51:32;5.17;;;2.60;;
4051;SDS011;2040;50.924;11.604;2022-08-24T16:53:57;5.97;;;2.27;;
4051;SDS011;2040;50.924;11.604;2022-08-24T16:56:24;3.10;;;2.70;;
4051;SDS011;2040;50.924;11.604;2022-08-24T16:58:52;7.63;;;2.90;;
4051;SDS011;2040;50.924;11.604;2022-08-24T17:01:18;4.47;;;2.40;;
4051;SDS011;2040;50.924;11.604;2022-08-24T17:03:44;4.30;;;2.43;;
4051;SDS011;2040;50.924;11.604;2022-08-24T17:06:21;3.50;;;2.67;;
4051;SDS011;2040;50.924;11.604;2022-08-24T17:08:46;6.07;;;2.70;;
4051;SDS011;2040;50.924;11.604;2022-08-24T17:11:20;3.07;;;2.13;;
4051;SDS011;2040;50.924;11.604;2022-08-24T17:13:46;6.53;;;2.43;;
4051;SDS011;2040;50.924;11.604;2022-08-24T17:16:12;4.67;;;2.70;;
4051;SDS011;2040;50.924;11.604;2022-08-24T17:18:38;7.70;;;3.37;;
4051;SDS011;2040;50.924;11.604;2022-08-24T17:21:05;3.37;;;2.90;;
4051;SDS011;2040;50.924;11.604;2022-08-24T17:23:31;4.80;;;3.30;;
4051;SDS011;2040;50.924;11.604;2022-08-24T17:25:57;5.77;;;3.00;;
4051;SDS011;2040;50.924;11.604;2022-08-24T17:28:34;4.50;;;2.57;;
4051;SDS011;2040;50.924;11.604;2022-08-24T17:31:05;3.67;;;2.90;;
4051;SDS011;2040;50.924;11.604;2022-08-24T17:33:30;4.63;;;2.30;;
4051;SDS011;2040;50.924;11.604;2022-08-24T17:35:56;3.30;;;2.53;;
4051;SDS011;2040;50.924;11.604;2022-08-24T17:41:03;7.20;;;2.63;;
4051;SDS011;2040;50.924;11.604;2022-08-24T17:43:29;4.27;;;3.20;;
4051;SDS011;2040;50.924;11.604;2022-08-24T17:45:54;5.60;;;3.07;;
4051;SDS011;2040;50.924;11.604;2022-08-24T17:48:22;3.10;;;2.63;;
4051;SDS011;2040;50.924;11.604;2022-08-24T17:50:50;5.23;;;3.03;;
4051;SDS011;2040;50.924;11.604;2022-08-24T17:53:16;3.80;;;2.90;;
4051;SDS011;2040;50.924;11.604;2022-08-24T17:55:42;4.30;;;2.70;;
4051;SDS011;2040;50.924;11.604;2022-08-24T17:58:08;5.10;;;2.90;;
4051;SDS011;2040;50.924;11.604;2022-08-24T18:00:33;4.43;;;3.20;;
4051;SDS011;2040;50.924;11.604;2022-08-24T18:02:59;8.60;;;3.10;;
4051;SDS011;2040;50.924;11.604;2022-08-24T18:05:25;8.27;;;2.90;;
4051;SDS011;2040;50.924;11.604;2022-08-24T18:07:51;9.03;;;3.37;;
4051;SDS011;2040;50.924;11.604;2022-08-24T18:10:19;7.17;;;3.40;;
4051;SDS011;2040;50.924;11.604;2022-08-24T18:12:48;8.20;;;3.50;;
4051;SDS011;2040;50.924;11.604;2022-08-24T18:15:14;15.27;;;3.30;;
4051;SDS011;2040;50.924;11.604;2022-08-24T18:17:41;5.83;;;3.50;;
4051;SDS011;2040;50.924;11.604;2022-08-24T18:20:10;7.00;;;3.20;;
4051;SDS011;2040;50.924;11.604;2022-08-24T18:22:37;6.50;;;3.90;;